sensor_id;sensor_type;location;lat;lon;timestamp;P1;durP1;ratioP1;P2;durP2;ratioP2
25905;SDS011;13713;52.552;13.204;2022-12-07T00:01:50;65.45;;;34.38;;
25905;SDS011;13713;52.552;13.204;2022-12-07T00:04:11;61.55;;;31.13;;
25905;SDS011;13713;52.552;13.204;2022-12-07T00:06:39;67.43;;;34.08;;
25905;SDS011;13713;52.552;13.204;2022-12-07T00:09:07;63.25;;;32.45;;
25905;SDS011;13713;52.552;13.204;2022-12-07T00:11:35;64.32;;;32.28;;
25905;SDS011;13713;52.552;13.204;2022-12-07T00:14:02;61.60;;;32.75;;
25905;SDS011;13713;52.552;13.204;2022-12-07T00:16:30;62.90;;;32.25;;
25905;SDS011;13713;52.552;13.204;2022-12-07T00:18:57;59.42;;;30.95;;
25905;SDS011;13713;52.552;13.204;2022-12-07T00:21:24;64.10;;;31.80;;
25905;SDS011;13713;52.552;13.204;2022-12-07T00:23:51;63.33;;;30.95;;
25905;SDS011;13713;52.552;13.204;2022-12-07T00:26:38;58.25;;;30.45;;
25905;SDS011;13713;52.552;13.204;2022-12-07T00:29:26;57.13;;;29.92;;
25905;SDS011;13713;52.552;13.204;2022-12-07T00:31:50;64.72;;;30.75;;
25905;SDS011;13713;52.552;13.204;2022-12-07T00:34:17;61.28;;;30.35;;
25905;SDS011;13713;52.552;13.204;2022-12-07T00:36:44;56.55;;;29.77;;
25905;SDS011;13713;52.552;13.204;2022-12-07T00:39:10;58.17;;;29.52;;
25905;SDS011;13713;52.552;13.204;2022-12-07T00:41:36;60.58;;;29.60;;
25905;SDS011;13713;52.552;13.204;2022-12-07T00:44:01;57.63;;;28.77;;
25905;SDS011;13713;52.552;13.204;2022-12-07T00:46:27;57.97;;;30.00;;
25905;SDS011;13713;52.552;13.204;2022-12-07T00:48:53;52.42;;;27.40;;
25905;SDS011;13713;52.552;13.204;2022-12-07T00:51:19;53.38;;;27.55;;
25905;SDS011;13713;52.552;13.204;2022-12-07T00:53:47;57.92;;;29.90;;
25905;SDS011;13713;52.552;13.204;2022-12-07T00:56:17;55.40;;;28.05;;
25905;SDS011;13713;52.552;13.204;2022-12-07T00:58:49;53.90;;;27.42;;
25905;SDS011;13713;52.552;13.204;2022-12-07T01:01:19;51.95;;;26.98;;
25905;SDS011;13713;52.552;13.204;2022-12-07T01:03:45;48.75;;;27.25;;
25905;SDS011;13713;52.552;13.204;2022-12-07T01:06:13;53.55;;;27.35;;
25905;SDS011;13713;52.552;13.204;2022-12-07T01:08:43;53.20;;;27.40;;
25905;SDS011;13713;52.552;13.204;2022-12-07T01:11:11;47.75;;;26.13;;
25905;SDS011;13713;52.552;13.204;2022-12-07T01:13:39;48.75;;;27.33;;
25905;SDS011;13713;52.552;13.204;2022-12-07T01:16:05;52.13;;;26.75;;
25905;SDS011;13713;52.552;13.204;2022-12-07T01:18:33;49.15;;;25.52;;
25905;SDS011;13713;52.552;13.204;2022-12-07T01:21:01;51.38;;;27.80;;
25905;SDS011;13713;52.552;13.204;2022-12-07T01:23:27;48.42;;;25.55;;
25905;SDS011;13713;52.552;13.204;2022-12-07T01:25:54;48.50;;;26.48;;
25905;SDS011;13713;52.552;13.204;2022-12-07T01:28:20;46.55;;;25.45;;
25905;SDS011;13713;52.552;13.204;2022-12-07T01:30:54;47.97;;;25.08;;
25905;SDS011;13713;52.552;13.204;2022-12-07T01:33:28;48.53;;;25.73;;
25905;SDS011;13713;52.552;13.204;2022-12-07T01:36:00;49.00;;;25.60;;
25905;SDS011;13713;52.552;13.204;2022-12-07T01:38:43;44.92;;;24.88;;
25905;SDS011;13713;52.552;13.204;2022-12-07T01:41:10;45.08;;;24.90;;
25905;SDS011;13713;52.552;13.204;2022-12-07T01:43:36;46.15;;;25.63;;
25905;SDS011;13713;52.552;13.204;2022-12-07T01:46:02;42.33;;;24.25;;
25905;SDS011;13713;52.552;13.204;2022-12-07T01:48:32;46.97;;;24.30;;
25905;SDS011;13713;52.552;13.204;2022-12-07T01:51:04;44.17;;;23.90;;
25905;SDS011;13713;52.552;13.204;2022-12-07T01:53:34;44.75;;;24.38;;
25905;SDS011;13713;52.552;13.204;2022-12-07T01:56:03;42.17;;;23.30;;
25905;SDS011;13713;52.552;13.204;2022-12-07T01:58:30;41.72;;;24.30;;
25905;SDS011;13713;52.552;13.204;2022-12-07T02:00:56;47.67;;;24.13;;
25905;SDS011;13713;52.552;13.204;2022-12-07T02:06:19;43.42;;;24.25;;
25905;SDS011;13713;52.552;13.204;2022-12-07T02:08:47;42.60;;;22.55;;
25905;SDS011;13713;52.552;13.204;2022-12-07T02:11:13;40.13;;;23.10;;
25905;SDS011;13713;52.552;13.204;2022-12-07T02:13:40;45.80;;;23.23;;
25905;SDS011;13713;52.552;13.204;2022-12-07T02:16:09;43.03;;;22.73;;
25905;SDS011;13713;52.552;13.204;2022-12-07T02:32:26;43.20;;;21.60;;
25905;SDS011;13713;52.552;13.204;2022-12-07T02:40:38;40.72;;;21.48;;
25905;SDS011;13713;52.552;13.204;2022-12-07T02:43:19;41.28;;;21.55;;
25905;SDS011;13713;52.552;13.204;2022-12-07T02:46:03;37.08;;;20.77;;
25905;SDS011;13713;52.552;13.204;2022-12-07T02:48:32;36.55;;;21.52;;
25905;SDS011;13713;52.552;13.204;2022-12-07T02:51:00;34.10;;;20.08;;
25905;SDS011;13713;52.552;13.204;2022-12-07T02:53:29;41.85;;;22.50;;
25905;SDS011;13713;52.552;13.204;2022-12-07T03:07:08;37.80;;;20.92;;
25905;SDS011;13713;52.552;13.204;2022-12-07T03:09:44;37.25;;;20.20;;
25905;SDS011;13713;52.552;13.204;2022-12-07T03:12:20;37.20;;;20.52;;
25905;SDS011;13713;52.552;13.204;2022-12-07T03:15:03;36.42;;;20.10;;
25905;SDS011;13713;52.552;13.204;2022-12-07T03:17:39;36.70;;;20.42;;
25905;SDS011;13713;52.552;13.204;2022-12-07T03:20:10;36.30;;;20.38;;
25905;SDS011;13713;52.552;13.204;2022-12-07T03:22:38;37.97;;;21.23;;
25905;SDS011;13713;52.552;13.204;2022-12-07T03:25:09;35.53;;;20.40;;
25905;SDS011;13713;52.552;13.204;2022-12-07T03:27:45;35.50;;;19.52;;
25905;SDS011;13713;52.552;13.204;2022-12-07T03:30:37;33.83;;;18.77;;
25905;SDS011;13713;52.552;13.204;2022-12-07T03:35:53;34.72;;;19.25;;
25905;SDS011;13713;52.552;13.204;2022-12-07T03:38:40;34.83;;;18.58;;
25905;SDS011;13713;52.552;13.204;2022-12-07T03:41:25;33.58;;;18.38;;
25905;SDS011;13713;52.552;13.204;2022-12-07T03:43:54;34.17;;;19.42;;
25905;SDS011;13713;52.552;13.204;2022-12-07T03:46:25;34.75;;;18.10;;
25905;SDS011;13713;52.552;13.204;2022-12-07T03:49:00;34.15;;;19.33;;
25905;SDS011;13713;52.552;13.204;2022-12-07T03:51:46;34.78;;;19.27;;
25905;SDS011;13713;52.552;13.204;2022-12-07T03:54:38;33.05;;;18.23;;
25905;SDS011;13713;52.552;13.204;2022-12-07T03:57:08;36.58;;;19.40;;
25905;SDS011;13713;52.552;13.204;2022-12-07T03:59:36;36.08;;;19.20;;
25905;SDS011;13713;52.552;13.204;2022-12-07T04:02:04;31.83;;;17.73;;
25905;SDS011;13713;52.552;13.204;2022-12-07T04:04:31;35.67;;;19.15;;
25905;SDS011;13713;52.552;13.204;2022-12-07T04:06:57;33.22;;;18.48;;
25905;SDS011;13713;52.552;13.204;2022-12-07T04:09:23;37.00;;;19.80;;
25905;SDS011;13713;52.552;13.204;2022-12-07T04:11:49;35.08;;;18.92;;
25905;SDS011;13713;52.552;13.204;2022-12-07T04:14:14;36.63;;;19.30;;
25905;SDS011;13713;52.552;13.204;2022-12-07T04:16:53;34.50;;;19.52;;
25905;SDS011;13713;52.552;13.204;2022-12-07T04:19:25;35.45;;;18.33;;
25905;SDS011;13713;52.552;13.204;2022-12-07T04:21:52;33.75;;;18.58;;
25905;SDS011;13713;52.552;13.204;2022-12-07T04:24:18;32.00;;;18.20;;
25905;SDS011;13713;52.552;13.204;2022-12-07T04:26:45;33.90;;;18.38;;
25905;SDS011;13713;52.552;13.204;2022-12-07T04:29:11;31.95;;;18.15;;
25905;SDS011;13713;52.552;13.204;2022-12-07T04:31:38;34.50;;;19.35;;
25905;SDS011;13713;52.552;13.204;2022-12-07T04:34:04;34.10;;;19.40;;
25905;SDS011;13713;52.552;13.204;2022-12-07T04:36:30;35.95;;;21.73;;
25905;SDS011;13713;52.552;13.204;2022-12-07T04:38:56;45.17;;;24.88;;
25905;SDS011;13713;52.552;13.204;2022-12-07T04:41:22;38.92;;;22.52;;
25905;SDS011;13713;52.552;13.204;2022-12-07T04:43:54;37.30;;;21.65;;
25905;SDS011;13713;52.552;13.204;2022-12-07T04:46:21;41.08;;;23.70;;
25905;SDS011;13713;52.552;13.204;2022-12-07T04:48:48;42.10;;;24.60;;
25905;SDS011;13713;52.552;13.204;2022-12-07T04:51:15;42.05;;;24.10;;
25905;SDS011;13713;52.552;13.204;2022-12-07T04:53:44;42.35;;;24.92;;
25905;SDS011;13713;52.552;13.204;2022-12-07T04:56:09;42.58;;;24.17;;
25905;SDS011;13713;52.552;13.204;2022-12-07T04:58:35;43.35;;;24.63;;
25905;SDS011;13713;52.552;13.204;2022-12-07T05:01:01;42.60;;;24.00;;
25905;SDS011;13713;52.552;13.204;2022-12-07T05:03:26;43.33;;;23.38;;
25905;SDS011;13713;52.552;13.204;2022-12-07T05:05:52;39.85;;;24.30;;
25905;SDS011;13713;52.552;13.204;2022-12-07T05:08:17;41.42;;;24.05;;
25905;SDS011;13713;52.552;13.204;2022-12-07T05:10:43;42.67;;;23.77;;
25905;SDS011;13713;52.552;13.204;2022-12-07T05:13:09;40.30;;;23.75;;
25905;SDS011;13713;52.552;13.204;2022-12-07T05:15:35;37.53;;;22.85;;
25905;SDS011;13713;52.552;13.204;2022-12-07T05:18:00;40.28;;;24.23;;
25905;SDS011;13713;52.552;13.204;2022-12-07T05:20:26;40.30;;;22.80;;
25905;SDS011;13713;52.552;13.204;2022-12-07T05:22:52;37.45;;;23.35;;
25905;SDS011;13713;52.552;13.204;2022-12-07T05:25:17;48.50;;;26.50;;
25905;SDS011;13713;52.552;13.204;2022-12-07T05:27:43;46.45;;;27.90;;
25905;SDS011;13713;52.552;13.204;2022-12-07T05:30:09;55.92;;;31.02;;
25905;SDS011;13713;52.552;13.204;2022-12-07T05:32:35;58.97;;;33.45;;
25905;SDS011;13713;52.552;13.204;2022-12-07T05:35:00;56.17;;;33.00;;
25905;SDS011;13713;52.552;13.204;2022-12-07T05:37:26;59.88;;;34.05;;
25905;SDS011;13713;52.552;13.204;2022-12-07T05:39:52;58.40;;;34.50;;
25905;SDS011;13713;52.552;13.204;2022-12-07T05:42:17;58.22;;;32.65;;
25905;SDS011;13713;52.552;13.204;2022-12-07T05:44:43;60.45;;;33.10;;
25905;SDS011;13713;52.552;13.204;2022-12-07T05:47:13;61.92;;;33.13;;
25905;SDS011;13713;52.552;13.204;2022-12-07T05:49:40;60.20;;;33.45;;
25905;SDS011;13713;52.552;13.204;2022-12-07T05:52:06;57.45;;;31.42;;
25905;SDS011;13713;52.552;13.204;2022-12-07T05:54:32;58.15;;;32.20;;
25905;SDS011;13713;52.552;13.204;2022-12-07T05:56:58;56.25;;;30.60;;
25905;SDS011;13713;52.552;13.204;2022-12-07T05:59:24;57.30;;;33.05;;
25905;SDS011;13713;52.552;13.204;2022-12-07T06:01:50;53.42;;;30.27;;
25905;SDS011;13713;52.552;13.204;2022-12-07T06:04:23;55.45;;;31.15;;
25905;SDS011;13713;52.552;13.204;2022-12-07T06:06:50;58.58;;;32.50;;
25905;SDS011;13713;52.552;13.204;2022-12-07T06:09:17;63.85;;;34.35;;
25905;SDS011;13713;52.552;13.204;2022-12-07T06:11:46;61.17;;;31.08;;
25905;SDS011;13713;52.552;13.204;2022-12-07T06:14:30;62.42;;;32.53;;
25905;SDS011;13713;52.552;13.204;2022-12-07T06:16:56;65.82;;;33.20;;
25905;SDS011;13713;52.552;13.204;2022-12-07T06:19:22;393.92;;;91.55;;
25905;SDS011;13713;52.552;13.204;2022-12-07T06:21:48;74.93;;;33.58;;
25905;SDS011;13713;52.552;13.204;2022-12-07T06:24:14;66.20;;;32.00;;
25905;SDS011;13713;52.552;13.204;2022-12-07T06:26:40;67.50;;;30.70;;
25905;SDS011;13713;52.552;13.204;2022-12-07T06:29:07;70.70;;;30.63;;
25905;SDS011;13713;52.552;13.204;2022-12-07T06:31:33;62.72;;;28.95;;
25905;SDS011;13713;52.552;13.204;2022-12-07T06:34:03;61.13;;;29.02;;
25905;SDS011;13713;52.552;13.204;2022-12-07T06:36:31;64.70;;;28.48;;
25905;SDS011;13713;52.552;13.204;2022-12-07T06:38:57;72.95;;;34.00;;
25905;SDS011;13713;52.552;13.204;2022-12-07T06:41:22;56.85;;;29.08;;
25905;SDS011;13713;52.552;13.204;2022-12-07T06:43:48;59.78;;;27.77;;
25905;SDS011;13713;52.552;13.204;2022-12-07T06:46:14;61.30;;;28.55;;
25905;SDS011;13713;52.552;13.204;2022-12-07T06:48:41;65.35;;;29.23;;
25905;SDS011;13713;52.552;13.204;2022-12-07T06:51:07;59.20;;;26.83;;
25905;SDS011;13713;52.552;13.204;2022-12-07T06:53:33;56.67;;;26.60;;
25905;SDS011;13713;52.552;13.204;2022-12-07T06:55:59;49.50;;;25.52;;
25905;SDS011;13713;52.552;13.204;2022-12-07T06:58:25;50.45;;;23.67;;
25905;SDS011;13713;52.552;13.204;2022-12-07T07:00:50;45.83;;;23.38;;
25905;SDS011;13713;52.552;13.204;2022-12-07T07:03:16;48.13;;;22.80;;
25905;SDS011;13713;52.552;13.204;2022-12-07T07:05:42;43.90;;;22.60;;
25905;SDS011;13713;52.552;13.204;2022-12-07T07:08:08;42.92;;;22.33;;
25905;SDS011;13713;52.552;13.204;2022-12-07T07:10:35;43.15;;;21.42;;
25905;SDS011;13713;52.552;13.204;2022-12-07T07:13:01;44.38;;;22.35;;
25905;SDS011;13713;52.552;13.204;2022-12-07T07:15:27;39.63;;;19.63;;
25905;SDS011;13713;52.552;13.204;2022-12-07T07:17:53;41.58;;;21.85;;
25905;SDS011;13713;52.552;13.204;2022-12-07T07:20:19;41.97;;;21.52;;
25905;SDS011;13713;52.552;13.204;2022-12-07T07:22:44;37.22;;;19.92;;
25905;SDS011;13713;52.552;13.204;2022-12-07T07:25:10;35.70;;;18.30;;
25905;SDS011;13713;52.552;13.204;2022-12-07T07:27:36;35.90;;;18.55;;
25905;SDS011;13713;52.552;13.204;2022-12-07T07:30:02;35.70;;;18.08;;
25905;SDS011;13713;52.552;13.204;2022-12-07T07:32:29;34.92;;;17.77;;
25905;SDS011;13713;52.552;13.204;2022-12-07T07:34:54;36.42;;;18.92;;
25905;SDS011;13713;52.552;13.204;2022-12-07T07:37:20;35.78;;;18.35;;
25905;SDS011;13713;52.552;13.204;2022-12-07T07:39:45;57.67;;;29.00;;
25905;SDS011;13713;52.552;13.204;2022-12-07T07:42:11;69.47;;;35.42;;
25905;SDS011;13713;52.552;13.204;2022-12-07T07:44:37;65.38;;;34.15;;
25905;SDS011;13713;52.552;13.204;2022-12-07T07:47:03;61.72;;;32.03;;
25905;SDS011;13713;52.552;13.204;2022-12-07T07:49:29;56.25;;;29.58;;
25905;SDS011;13713;52.552;13.204;2022-12-07T07:51:54;56.40;;;28.58;;
25905;SDS011;13713;52.552;13.204;2022-12-07T07:54:20;65.75;;;34.83;;
25905;SDS011;13713;52.552;13.204;2022-12-07T07:56:45;79.65;;;41.38;;
25905;SDS011;13713;52.552;13.204;2022-12-07T07:59:11;78.70;;;40.50;;
25905;SDS011;13713;52.552;13.204;2022-12-07T08:01:37;70.85;;;37.17;;
25905;SDS011;13713;52.552;13.204;2022-12-07T08:04:02;65.97;;;34.20;;
25905;SDS011;13713;52.552;13.204;2022-12-07T08:06:28;60.25;;;32.45;;
25905;SDS011;13713;52.552;13.204;2022-12-07T08:08:54;56.42;;;31.70;;
25905;SDS011;13713;52.552;13.204;2022-12-07T08:11:19;67.78;;;34.92;;
25905;SDS011;13713;52.552;13.204;2022-12-07T08:13:45;63.58;;;35.70;;
25905;SDS011;13713;52.552;13.204;2022-12-07T08:16:14;70.75;;;39.03;;
25905;SDS011;13713;52.552;13.204;2022-12-07T08:18:41;81.53;;;46.30;;
25905;SDS011;13713;52.552;13.204;2022-12-07T08:21:08;96.70;;;54.38;;
25905;SDS011;13713;52.552;13.204;2022-12-07T08:23:36;89.97;;;48.60;;
25905;SDS011;13713;52.552;13.204;2022-12-07T08:26:35;85.10;;;45.47;;
25905;SDS011;13713;52.552;13.204;2022-12-07T08:28:54;89.22;;;46.42;;
25905;SDS011;13713;52.552;13.204;2022-12-07T08:31:19;80.75;;;44.92;;
25905;SDS011;13713;52.552;13.204;2022-12-07T08:33:46;72.35;;;41.75;;
25905;SDS011;13713;52.552;13.204;2022-12-07T08:36:12;71.82;;;41.92;;
25905;SDS011;13713;52.552;13.204;2022-12-07T08:38:39;98.90;;;55.30;;
25905;SDS011;13713;52.552;13.204;2022-12-07T08:41:07;107.07;;;56.22;;
25905;SDS011;13713;52.552;13.204;2022-12-07T08:43:33;95.78;;;52.00;;
25905;SDS011;13713;52.552;13.204;2022-12-07T08:48:46;81.85;;;42.05;;
25905;SDS011;13713;52.552;13.204;2022-12-07T08:51:12;80.45;;;41.67;;
25905;SDS011;13713;52.552;13.204;2022-12-07T08:53:38;70.05;;;38.33;;
25905;SDS011;13713;52.552;13.204;2022-12-07T08:56:05;73.65;;;38.88;;
25905;SDS011;13713;52.552;13.204;2022-12-07T08:58:32;67.00;;;35.47;;
25905;SDS011;13713;52.552;13.204;2022-12-07T09:00:59;66.13;;;33.90;;
25905;SDS011;13713;52.552;13.204;2022-12-07T09:03:24;56.45;;;31.65;;
25905;SDS011;13713;52.552;13.204;2022-12-07T09:05:50;54.05;;;31.15;;
25905;SDS011;13713;52.552;13.204;2022-12-07T09:08:17;57.70;;;31.98;;
25905;SDS011;13713;52.552;13.204;2022-12-07T09:10:43;53.33;;;28.88;;
25905;SDS011;13713;52.552;13.204;2022-12-07T09:13:08;55.28;;;28.27;;
25905;SDS011;13713;52.552;13.204;2022-12-07T09:15:34;52.55;;;26.67;;
25905;SDS011;13713;52.552;13.204;2022-12-07T09:18:00;47.05;;;26.35;;
25905;SDS011;13713;52.552;13.204;2022-12-07T09:20:25;48.47;;;25.75;;
25905;SDS011;13713;52.552;13.204;2022-12-07T09:22:51;44.72;;;24.92;;
25905;SDS011;13713;52.552;13.204;2022-12-07T09:25:17;46.92;;;23.90;;
25905;SDS011;13713;52.552;13.204;2022-12-07T09:27:42;46.03;;;24.77;;
25905;SDS011;13713;52.552;13.204;2022-12-07T09:30:08;70.35;;;37.33;;
25905;SDS011;13713;52.552;13.204;2022-12-07T09:32:34;74.85;;;39.47;;
25905;SDS011;13713;52.552;13.204;2022-12-07T09:34:59;73.07;;;36.58;;
25905;SDS011;13713;52.552;13.204;2022-12-07T09:37:25;64.32;;;34.78;;
25905;SDS011;13713;52.552;13.204;2022-12-07T09:39:51;79.97;;;40.25;;
25905;SDS011;13713;52.552;13.204;2022-12-07T09:42:27;77.57;;;39.47;;
25905;SDS011;13713;52.552;13.204;2022-12-07T09:44:58;81.97;;;44.65;;
25905;SDS011;13713;52.552;13.204;2022-12-07T09:47:24;94.80;;;52.78;;
25905;SDS011;13713;52.552;13.204;2022-12-07T09:49:51;77.85;;;44.78;;
25905;SDS011;13713;52.552;13.204;2022-12-07T09:52:20;84.22;;;48.25;;
25905;SDS011;13713;52.552;13.204;2022-12-07T09:54:51;80.50;;;46.13;;
25905;SDS011;13713;52.552;13.204;2022-12-07T09:57:18;76.25;;;42.58;;
25905;SDS011;13713;52.552;13.204;2022-12-07T09:59:50;78.68;;;41.25;;
25905;SDS011;13713;52.552;13.204;2022-12-07T10:02:34;85.50;;;42.22;;
25905;SDS011;13713;52.552;13.204;2022-12-07T10:05:07;89.97;;;43.47;;
25905;SDS011;13713;52.552;13.204;2022-12-07T10:07:43;68.35;;;37.50;;
25905;SDS011;13713;52.552;13.204;2022-12-07T10:10:13;78.05;;;37.33;;
25905;SDS011;13713;52.552;13.204;2022-12-07T10:18:16;69.72;;;31.95;;
25905;SDS011;13713;52.552;13.204;2022-12-07T10:21:11;72.97;;;32.45;;
25905;SDS011;13713;52.552;13.204;2022-12-07T10:24:01;68.15;;;30.77;;
25905;SDS011;13713;52.552;13.204;2022-12-07T10:31:40;70.93;;;31.83;;
25905;SDS011;13713;52.552;13.204;2022-12-07T10:34:15;63.38;;;30.52;;
25905;SDS011;13713;52.552;13.204;2022-12-07T10:36:49;73.60;;;33.22;;
25905;SDS011;13713;52.552;13.204;2022-12-07T10:39:17;76.38;;;36.22;;
25905;SDS011;13713;52.552;13.204;2022-12-07T10:41:55;73.65;;;33.03;;
25905;SDS011;13713;52.552;13.204;2022-12-07T10:44:27;68.30;;;34.30;;
25905;SDS011;13713;52.552;13.204;2022-12-07T11:09:58;88.93;;;39.28;;
25905;SDS011;13713;52.552;13.204;2022-12-07T11:15:53;78.40;;;35.07;;
25905;SDS011;13713;52.552;13.204;2022-12-07T11:27:03;79.97;;;38.15;;
25905;SDS011;13713;52.552;13.204;2022-12-07T11:30:01;78.88;;;38.10;;
25905;SDS011;13713;52.552;13.204;2022-12-07T11:38:09;66.63;;;33.17;;
25905;SDS011;13713;52.552;13.204;2022-12-07T11:40:39;68.03;;;32.67;;
25905;SDS011;13713;52.552;13.204;2022-12-07T11:43:27;64.70;;;31.58;;
25905;SDS011;13713;52.552;13.204;2022-12-07T11:48:32;65.93;;;30.85;;
25905;SDS011;13713;52.552;13.204;2022-12-07T11:51:00;71.38;;;32.97;;
25905;SDS011;13713;52.552;13.204;2022-12-07T11:56:36;77.53;;;30.50;;
25905;SDS011;13713;52.552;13.204;2022-12-07T12:01:55;69.18;;;28.55;;
25905;SDS011;13713;52.552;13.204;2022-12-07T12:07:21;69.47;;;33.15;;
25905;SDS011;13713;52.552;13.204;2022-12-07T12:18:14;63.10;;;31.30;;
25905;SDS011;13713;52.552;13.204;2022-12-07T12:20:45;59.22;;;29.77;;
25905;SDS011;13713;52.552;13.204;2022-12-07T12:23:58;60.67;;;29.85;;
25905;SDS011;13713;52.552;13.204;2022-12-07T12:26:24;54.88;;;28.70;;
25905;SDS011;13713;52.552;13.204;2022-12-07T12:28:54;49.10;;;26.03;;
25905;SDS011;13713;52.552;13.204;2022-12-07T12:33:56;50.88;;;24.65;;
25905;SDS011;13713;52.552;13.204;2022-12-07T12:36:26;48.88;;;23.58;;
25905;SDS011;13713;52.552;13.204;2022-12-07T12:39:28;50.50;;;24.42;;
25905;SDS011;13713;52.552;13.204;2022-12-07T13:02:25;30.13;;;16.73;;
25905;SDS011;13713;52.552;13.204;2022-12-07T13:20:58;38.03;;;22.42;;
25905;SDS011;13713;52.552;13.204;2022-12-07T13:28:37;37.35;;;20.00;;
25905;SDS011;13713;52.552;13.204;2022-12-07T13:31:11;34.50;;;19.75;;
25905;SDS011;13713;52.552;13.204;2022-12-07T13:33:38;33.95;;;19.17;;
25905;SDS011;13713;52.552;13.204;2022-12-07T13:36:11;33.10;;;18.30;;
25905;SDS011;13713;52.552;13.204;2022-12-07T13:38:48;33.30;;;18.27;;
25905;SDS011;13713;52.552;13.204;2022-12-07T13:41:17;36.33;;;18.50;;
25905;SDS011;13713;52.552;13.204;2022-12-07T13:43:52;27.83;;;15.90;;
25905;SDS011;13713;52.552;13.204;2022-12-07T13:46:31;32.60;;;16.27;;
25905;SDS011;13713;52.552;13.204;2022-12-07T13:49:13;113.65;;;46.25;;
25905;SDS011;13713;52.552;13.204;2022-12-07T13:54:13;90.63;;;43.88;;
25905;SDS011;13713;52.552;13.204;2022-12-07T13:56:40;109.32;;;54.10;;
25905;SDS011;13713;52.552;13.204;2022-12-07T13:59:13;107.80;;;52.92;;
25905;SDS011;13713;52.552;13.204;2022-12-07T14:01:42;95.95;;;47.00;;
25905;SDS011;13713;52.552;13.204;2022-12-07T14:04:31;115.93;;;58.65;;
25905;SDS011;13713;52.552;13.204;2022-12-07T14:06:59;143.40;;;67.65;;
25905;SDS011;13713;52.552;13.204;2022-12-07T14:09:27;173.30;;;80.65;;
25905;SDS011;13713;52.552;13.204;2022-12-07T14:11:55;175.93;;;82.25;;
25905;SDS011;13713;52.552;13.204;2022-12-07T14:14:22;184.65;;;83.28;;
25905;SDS011;13713;52.552;13.204;2022-12-07T14:17:33;192.40;;;89.15;;
25905;SDS011;13713;52.552;13.204;2022-12-07T14:22:20;217.80;;;101.77;;
25905;SDS011;13713;52.552;13.204;2022-12-07T14:24:49;240.07;;;115.63;;
25905;SDS011;13713;52.552;13.204;2022-12-07T14:27:17;290.98;;;128.35;;
25905;SDS011;13713;52.552;13.204;2022-12-07T14:29:44;252.65;;;116.72;;
25905;SDS011;13713;52.552;13.204;2022-12-07T14:32:32;287.40;;;127.22;;
25905;SDS011;13713;52.552;13.204;2022-12-07T14:35:16;235.77;;;107.97;;
25905;SDS011;13713;52.552;13.204;2022-12-07T14:37:44;176.48;;;84.38;;
25905;SDS011;13713;52.552;13.204;2022-12-07T14:40:15;181.25;;;83.70;;
25905;SDS011;13713;52.552;13.204;2022-12-07T14:42:43;169.05;;;76.95;;
25905;SDS011;13713;52.552;13.204;2022-12-07T14:45:15;158.05;;;73.32;;
25905;SDS011;13713;52.552;13.204;2022-12-07T14:47:44;135.55;;;66.68;;
25905;SDS011;13713;52.552;13.204;2022-12-07T14:50:14;138.90;;;62.38;;
25905;SDS011;13713;52.552;13.204;2022-12-07T14:52:41;136.80;;;62.45;;
25905;SDS011;13713;52.552;13.204;2022-12-07T14:55:18;131.57;;;59.95;;
25905;SDS011;13713;52.552;13.204;2022-12-07T14:57:48;113.88;;;53.97;;
25905;SDS011;13713;52.552;13.204;2022-12-07T15:00:14;119.45;;;55.83;;
25905;SDS011;13713;52.552;13.204;2022-12-07T15:02:42;113.10;;;51.90;;
25905;SDS011;13713;52.552;13.204;2022-12-07T15:05:08;105.03;;;48.05;;
25905;SDS011;13713;52.552;13.204;2022-12-07T15:07:34;93.28;;;43.53;;
25905;SDS011;13713;52.552;13.204;2022-12-07T15:10:00;98.65;;;44.45;;
25905;SDS011;13713;52.552;13.204;2022-12-07T15:12:26;85.97;;;42.08;;
25905;SDS011;13713;52.552;13.204;2022-12-07T15:14:52;88.68;;;41.63;;
25905;SDS011;13713;52.552;13.204;2022-12-07T15:17:17;80.43;;;40.40;;
25905;SDS011;13713;52.552;13.204;2022-12-07T15:19:43;77.63;;;38.97;;
25905;SDS011;13713;52.552;13.204;2022-12-07T15:22:09;73.97;;;36.90;;
25905;SDS011;13713;52.552;13.204;2022-12-07T15:24:36;76.03;;;35.75;;
25905;SDS011;13713;52.552;13.204;2022-12-07T15:27:01;66.43;;;32.83;;
25905;SDS011;13713;52.552;13.204;2022-12-07T15:29:28;69.57;;;34.00;;
25905;SDS011;13713;52.552;13.204;2022-12-07T15:31:53;70.43;;;33.45;;
25905;SDS011;13713;52.552;13.204;2022-12-07T15:34:19;65.00;;;32.28;;
25905;SDS011;13713;52.552;13.204;2022-12-07T15:36:45;62.28;;;30.52;;
25905;SDS011;13713;52.552;13.204;2022-12-07T15:39:10;58.63;;;28.52;;
25905;SDS011;13713;52.552;13.204;2022-12-07T15:41:36;67.55;;;33.15;;
25905;SDS011;13713;52.552;13.204;2022-12-07T15:44:02;61.88;;;31.88;;
25905;SDS011;13713;52.552;13.204;2022-12-07T15:46:46;89.80;;;42.80;;
25905;SDS011;13713;52.552;13.204;2022-12-07T15:49:16;105.47;;;49.75;;
25905;SDS011;13713;52.552;13.204;2022-12-07T15:51:43;85.10;;;41.00;;
25905;SDS011;13713;52.552;13.204;2022-12-07T15:54:11;87.80;;;39.28;;
25905;SDS011;13713;52.552;13.204;2022-12-07T15:56:40;80.30;;;36.72;;
25905;SDS011;13713;52.552;13.204;2022-12-07T15:59:06;70.70;;;34.28;;
25905;SDS011;13713;52.552;13.204;2022-12-07T16:01:32;63.97;;;30.58;;
25905;SDS011;13713;52.552;13.204;2022-12-07T16:03:57;62.58;;;32.38;;
25905;SDS011;13713;52.552;13.204;2022-12-07T16:06:24;65.95;;;31.95;;
25905;SDS011;13713;52.552;13.204;2022-12-07T16:08:50;59.78;;;28.10;;
25905;SDS011;13713;52.552;13.204;2022-12-07T16:11:16;61.15;;;30.63;;
25905;SDS011;13713;52.552;13.204;2022-12-07T16:13:41;68.88;;;29.98;;
25905;SDS011;13713;52.552;13.204;2022-12-07T16:16:09;70.53;;;29.33;;
25905;SDS011;13713;52.552;13.204;2022-12-07T16:18:37;71.82;;;32.00;;
25905;SDS011;13713;52.552;13.204;2022-12-07T16:21:03;79.95;;;33.30;;
25905;SDS011;13713;52.552;13.204;2022-12-07T16:23:30;90.40;;;36.15;;
25905;SDS011;13713;52.552;13.204;2022-12-07T16:26:03;98.97;;;39.03;;
25905;SDS011;13713;52.552;13.204;2022-12-07T16:28:38;101.20;;;36.72;;
25905;SDS011;13713;52.552;13.204;2022-12-07T16:31:09;85.78;;;36.55;;
25905;SDS011;13713;52.552;13.204;2022-12-07T16:33:40;83.70;;;35.58;;
25905;SDS011;13713;52.552;13.204;2022-12-07T16:36:07;195.60;;;119.03;;
25905;SDS011;13713;52.552;13.204;2022-12-07T16:38:34;97.15;;;40.33;;
25905;SDS011;13713;52.552;13.204;2022-12-07T16:41:01;101.85;;;44.40;;
25905;SDS011;13713;52.552;13.204;2022-12-07T16:43:27;103.25;;;47.45;;
25905;SDS011;13713;52.552;13.204;2022-12-07T16:45:52;118.68;;;49.40;;
25905;SDS011;13713;52.552;13.204;2022-12-07T16:48:18;137.98;;;54.85;;
25905;SDS011;13713;52.552;13.204;2022-12-07T16:50:44;148.30;;;57.60;;
25905;SDS011;13713;52.552;13.204;2022-12-07T16:53:12;146.20;;;57.67;;
25905;SDS011;13713;52.552;13.204;2022-12-07T16:55:39;142.93;;;54.15;;
25905;SDS011;13713;52.552;13.204;2022-12-07T16:58:05;148.32;;;58.03;;